Time;durP1;ratioP1;P1;durP2;ratioP2;P2;SDS_P1;SDS_P2;PMS_P1;PMS_P2;Temp;Humidity;BMP_temperature;BMP_pressure;BME280_temperature;BME280_humidity;BME280_pressure;Samples;Min_cycle;Max_cycle;Signal;HPM_P1;HPM_P2
2022/12/16 00:01:58;;;;;;;;;;;;;;;;;;10457041;28;19924;-61
2022/12/16 00:07:00;;;;;;;;;;;;;;;;;;10456702;28;19925;-61
2022/12/16 00:12:02;;;;;;;;;;;;;;;;;;10457485;28;19925;-61
2022/12/16 00:17:04;;;;;;;;;;;;;;;;;;10457421;28;19925;-61
2022/12/16 00:22:06;;;;;;;;;;;;;;;;;;10456815;28;19971;-61
2022/12/16 00:27:08;;;;;;;;;;;;;;;;;;10456396;28;19929;-61
2022/12/16 00:32:10;;;;;;;;;;;;;;;;;;10457680;28;19951;-61
2022/12/16 00:37:13;;;;;;;;;;;;;;;;;;10457042;28;19929;-61
2022/12/16 00:42:15;;;;;;;;;;;;;;;;;;10459643;28;20392;-61
2022/12/16 00:47:17;;;;;;;;;;;;;;;;;;10464106;28;19925;-61
2022/12/16 00:52:19;;;;;;;;;;;;;;;;;;10464382;28;20461;-61
2022/12/16 00:57:21;;;;;;;;;;;;;;;;;;10464686;28;19925;-61
2022/12/16 01:02:23;;;;;;;;;;;;;;;;;;10463297;28;19932;-61
2022/12/16 01:07:25;;;;;;;;;;;;;;;;;;10463112;28;19924;-61
2022/12/16 01:12:27;;;;;;;;;;;;;;;;;;10463606;28;19925;-61
2022/12/16 01:17:29;;;;;;;;;;;;;;;;;;10463328;28;19974;-61
2022/12/16 01:22:31;;;;;;;;;;;;;;;;;;10463316;28;19924;-61
2022/12/16 01:27:33;;;;;;;;;;;;;;;;;;10463266;28;19935;-61
2022/12/16 01:32:35;;;;;;;;;;;;;;;;;;10462868;28;20299;-61
2022/12/16 01:37:37;;;;;;;;;;;;;;;;;;10462679;28;19925;-61
2022/12/16 01:42:39;;;;;;;;;;;;;;;;;;10463149;28;19951;-61
2022/12/16 01:47:41;;;;;;;;;;;;;;;;;;10462305;28;20376;-61
2022/12/16 01:52:43;;;;;;;;;;;;;;;;;;10461008;28;19929;-61
2022/12/16 01:57:45;;;;;;;;;;;;;;;;;;10461846;28;20371;-61
2022/12/16 02:02:47;;;;;;;;;;;;;;;;;;10461633;28;19983;-61
2022/12/16 02:07:50;;;;;;;;;;;;;;;;;;10461266;28;19925;-61
2022/12/16 02:12:52;;;;;;;;;;;;;;;;;;10461974;28;19932;-61
2022/12/16 02:17:54;;;;;;;;;;;;;;;;;;10461052;28;19928;-61
2022/12/16 02:22:56;;;;;;;;;;;;;;;;;;10460989;28;19925;-61
2022/12/16 02:27:58;;;;;;;;;;;;;;;;;;10460939;28;19947;-61
2022/12/16 02:33:00;;;;;;;;;;;;;;;;;;10460164;28;19925;-61
2022/12/16 02:38:02;;;;;;;;;;;;;;;;;;10460964;28;19924;-61
2022/12/16 02:43:04;;;;;;;;;;;;;;;;;;10460195;28;19925;-61
2022/12/16 02:48:06;;;;;;;;;;;;;;;;;;10460582;28;19932;-61
2022/12/16 02:53:08;;;;;;;;;;;;;;;;;;10459725;28;20368;-61
2022/12/16 02:58:10;;;;;;;;;;;;;;;;;;10459691;28;19932;-61
2022/12/16 03:03:12;;;;;;;;;;;;;;;;;;10458863;28;19925;-61
2022/12/16 03:08:15;;;;;;;;;;;;;;;;;;10458886;28;20024;-61
2022/12/16 03:13:17;;;;;;;;;;;;;;;;;;10459555;28;19929;-61
2022/12/16 03:18:19;;;;;;;;;;;;;;;;;;10459060;28;19979;-61
2022/12/16 03:23:21;;;;;;;;;;;;;;;;;;10459476;28;19924;-61
2022/12/16 03:28:23;;;;;;;;;;;;;;;;;;10458453;28;19928;-61
2022/12/16 03:33:26;;;;;;;;;;;;;;;;;;10458200;28;19931;-61
2022/12/16 03:38:28;;;;;;;;;;;;;;;;;;10458196;28;19932;-61
2022/12/16 03:43:30;;;;;;;;;;;;;;;;;;10458480;28;19932;-61
2022/12/16 03:48:32;;;;;;;;;;;;;;;;;;10456435;28;19925;-61
2022/12/16 03:53:34;;;;;;;;;;;;;;;;;;10458133;28;19932;-61
2022/12/16 03:58:38;;;;;;;;;;;;;;;;;;10457055;28;19932;-61
2022/12/16 04:03:40;;;;;;;;;;;;;;;;;;10457370;28;19950;-61
2022/12/16 04:08:43;;;;;;;;;;;;;;;;;;10457107;28;19931;-61
2022/12/16 04:24:26;;;;;;;;;;;;;;;;;;10498282;28;19936;-61
2022/12/16 04:29:28;;;;;;;;;;;;;;;;;;10498980;28;19932;-60
2022/12/16 04:34:30;;;;;;;;;;;;;;;;;;10497080;28;20345;-61
